sensor_id;sensor_type;location;lat;lon;timestamp;temperature;humidity
4308;DHT22;2167;53.448;9.984;2023-02-28T00:00:18;3.90;1.00
4308;DHT22;2167;53.448;9.984;2023-02-28T00:02:45;4.00;1.00
4308;DHT22;2167;53.448;9.984;2023-02-28T00:05:13;4.00;1.00
4308;DHT22;2167;53.448;9.984;2023-02-28T00:07:39;4.00;1.00
4308;DHT22;2167;53.448;9.984;2023-02-28T00:10:07;4.00;1.00
4308;DHT22;2167;53.448;9.984;2023-02-28T00:12:34;4.00;1.00
4308;DHT22;2167;53.448;9.984;2023-02-28T00:15:00;4.00;1.00
4308;DHT22;2167;53.448;9.984;2023-02-28T00:17:25;4.00;1.00
4308;DHT22;2167;53.448;9.984;2023-02-28T00:19:51;3.90;1.00
4308;DHT22;2167;53.448;9.984;2023-02-28T00:22:18;3.80;1.00
4308;DHT22;2167;53.448;9.984;2023-02-28T00:24:45;3.80;1.00
4308;DHT22;2167;53.448;9.984;2023-02-28T00:27:11;3.70;1.00
4308;DHT22;2167;53.448;9.984;2023-02-28T00:29:37;3.70;1.00
4308;DHT22;2167;53.448;9.984;2023-02-28T00:32:03;3.70;1.00
4308;DHT22;2167;53.448;9.984;2023-02-28T00:34:29;3.60;1.00
4308;DHT22;2167;53.448;9.984;2023-02-28T00:36:55;3.70;1.00
4308;DHT22;2167;53.448;9.984;2023-02-28T00:39:20;3.60;1.00
4308;DHT22;2167;53.448;9.984;2023-02-28T00:41:46;3.50;1.00
4308;DHT22;2167;53.448;9.984;2023-02-28T00:44:12;3.50;1.00
4308;DHT22;2167;53.448;9.984;2023-02-28T00:46:38;3.40;1.00
4308;DHT22;2167;53.448;9.984;2023-02-28T00:49:03;3.20;1.00
4308;DHT22;2167;53.448;9.984;2023-02-28T00:51:29;3.10;1.00
4308;DHT22;2167;53.448;9.984;2023-02-28T00:53:55;3.00;1.00
4308;DHT22;2167;53.448;9.984;2023-02-28T00:56:20;3.00;1.00
4308;DHT22;2167;53.448;9.984;2023-02-28T00:58:46;3.00;1.00
4308;DHT22;2167;53.448;9.984;2023-02-28T01:01:11;3.00;1.00
4308;DHT22;2167;53.448;9.984;2023-02-28T01:03:37;2.90;1.00
4308;DHT22;2167;53.448;9.984;2023-02-28T01:06:04;2.90;1.00
4308;DHT22;2167;53.448;9.984;2023-02-28T01:08:30;2.80;1.00
4308;DHT22;2167;53.448;9.984;2023-02-28T01:10:55;2.80;1.00
4308;DHT22;2167;53.448;9.984;2023-02-28T01:13:21;2.70;1.00
4308;DHT22;2167;53.448;9.984;2023-02-28T01:15:54;2.70;1.00
4308;DHT22;2167;53.448;9.984;2023-02-28T01:18:21;2.60;1.30
4308;DHT22;2167;53.448;9.984;2023-02-28T01:20:48;2.50;1.80
4308;DHT22;2167;53.448;9.984;2023-02-28T01:23:13;2.50;2.40
4308;DHT22;2167;53.448;9.984;2023-02-28T01:25:39;2.50;2.80
4308;DHT22;2167;53.448;9.984;2023-02-28T01:28:05;2.50;3.10
4308;DHT22;2167;53.448;9.984;2023-02-28T01:30:32;2.40;3.30
4308;DHT22;2167;53.448;9.984;2023-02-28T01:32:58;2.50;3.90
4308;DHT22;2167;53.448;9.984;2023-02-28T01:35:23;2.40;4.70
4308;DHT22;2167;53.448;9.984;2023-02-28T01:37:49;2.50;4.50
4308;DHT22;2167;53.448;9.984;2023-02-28T01:40:14;2.40;4.40
4308;DHT22;2167;53.448;9.984;2023-02-28T01:42:40;2.40;4.30
4308;DHT22;2167;53.448;9.984;2023-02-28T01:47:43;2.30;4.90
4308;DHT22;2167;53.448;9.984;2023-02-28T01:50:13;2.30;5.30
4308;DHT22;2167;53.448;9.984;2023-02-28T01:52:40;2.20;5.60
4308;DHT22;2167;53.448;9.984;2023-02-28T01:55:07;2.30;6.90
4308;DHT22;2167;53.448;9.984;2023-02-28T01:57:40;2.40;7.60
4308;DHT22;2167;53.448;9.984;2023-02-28T02:00:10;2.40;7.40
4308;DHT22;2167;53.448;9.984;2023-02-28T02:02:39;2.40;5.90
4308;DHT22;2167;53.448;9.984;2023-02-28T02:05:18;2.20;5.20
4308;DHT22;2167;53.448;9.984;2023-02-28T02:07:46;2.10;5.20
4308;DHT22;2167;53.448;9.984;2023-02-28T02:10:19;2.00;5.30
4308;DHT22;2167;53.448;9.984;2023-02-28T02:18:43;1.80;5.90
4308;DHT22;2167;53.448;9.984;2023-02-28T02:35:11;1.20;9.10
4308;DHT22;2167;53.448;9.984;2023-02-28T02:37:47;1.20;9.40
4308;DHT22;2167;53.448;9.984;2023-02-28T02:40:19;1.20;9.20
4308;DHT22;2167;53.448;9.984;2023-02-28T02:43:07;1.00;9.00
4308;DHT22;2167;53.448;9.984;2023-02-28T02:48:19;1.00;9.60
4308;DHT22;2167;53.448;9.984;2023-02-28T02:50:49;1.00;10.10
4308;DHT22;2167;53.448;9.984;2023-02-28T02:53:18;1.00;10.20
4308;DHT22;2167;53.448;9.984;2023-02-28T02:55:49;1.00;10.40
4308;DHT22;2167;53.448;9.984;2023-02-28T02:58:24;0.90;9.90
4308;DHT22;2167;53.448;9.984;2023-02-28T03:00:53;0.90;9.60
4308;DHT22;2167;53.448;9.984;2023-02-28T03:03:20;0.80;9.60
4308;DHT22;2167;53.448;9.984;2023-02-28T03:05:58;0.70;10.00
4308;DHT22;2167;53.448;9.984;2023-02-28T03:08:24;0.70;10.50
4308;DHT22;2167;53.448;9.984;2023-02-28T03:10:52;0.70;10.70
4308;DHT22;2167;53.448;9.984;2023-02-28T03:13:45;0.70;10.70
4308;DHT22;2167;53.448;9.984;2023-02-28T03:24:23;0.50;12.90
4308;DHT22;2167;53.448;9.984;2023-02-28T03:26:58;0.50;13.50
4308;DHT22;2167;53.448;9.984;2023-02-28T03:29:34;0.50;13.30
4308;DHT22;2167;53.448;9.984;2023-02-28T03:32:04;0.50;12.90
4308;DHT22;2167;53.448;9.984;2023-02-28T03:34:42;0.40;12.90
4308;DHT22;2167;53.448;9.984;2023-02-28T03:37:12;0.40;13.10
4308;DHT22;2167;53.448;9.984;2023-02-28T03:39:56;0.30;13.30
4308;DHT22;2167;53.448;9.984;2023-02-28T03:42:29;0.20;14.10
4308;DHT22;2167;53.448;9.984;2023-02-28T03:45:02;0.10;14.80
4308;DHT22;2167;53.448;9.984;2023-02-28T03:52:39;0.30;16.70
4308;DHT22;2167;53.448;9.984;2023-02-28T03:55:10;0.40;15.50
4308;DHT22;2167;53.448;9.984;2023-02-28T03:57:59;0.40;14.40
4308;DHT22;2167;53.448;9.984;2023-02-28T04:00:39;0.30;14.00
4308;DHT22;2167;53.448;9.984;2023-02-28T04:03:06;0.20;14.20
4308;DHT22;2167;53.448;9.984;2023-02-28T04:05:32;0.10;14.40
4308;DHT22;2167;53.448;9.984;2023-02-28T04:08:08;0.10;14.90
4308;DHT22;2167;53.448;9.984;2023-02-28T04:10:33;0.00;15.70
4308;DHT22;2167;53.448;9.984;2023-02-28T04:12:59;0.00;16.50
4308;DHT22;2167;53.448;9.984;2023-02-28T04:15:25;0.00;17.20
4308;DHT22;2167;53.448;9.984;2023-02-28T04:17:52;0.00;16.90
4308;DHT22;2167;53.448;9.984;2023-02-28T04:20:18;0.00;16.10
4308;DHT22;2167;53.448;9.984;2023-02-28T04:22:44;-0.10;15.40
4308;DHT22;2167;53.448;9.984;2023-02-28T04:25:10;-0.10;15.50
4308;DHT22;2167;53.448;9.984;2023-02-28T04:27:35;-0.10;15.80
4308;DHT22;2167;53.448;9.984;2023-02-28T04:30:01;-0.10;15.70
4308;DHT22;2167;53.448;9.984;2023-02-28T04:32:26;-0.10;15.80
4308;DHT22;2167;53.448;9.984;2023-02-28T04:34:52;-0.10;15.50
4308;DHT22;2167;53.448;9.984;2023-02-28T04:37:17;-0.10;15.80
4308;DHT22;2167;53.448;9.984;2023-02-28T04:39:43;-0.10;15.80
4308;DHT22;2167;53.448;9.984;2023-02-28T04:42:09;-0.10;14.50
4308;DHT22;2167;53.448;9.984;2023-02-28T04:44:35;-0.10;14.00
4308;DHT22;2167;53.448;9.984;2023-02-28T04:47:01;-0.10;13.80
4308;DHT22;2167;53.448;9.984;2023-02-28T04:49:26;-0.20;13.80
4308;DHT22;2167;53.448;9.984;2023-02-28T04:51:52;-0.30;14.10
4308;DHT22;2167;53.448;9.984;2023-02-28T04:54:18;-0.40;14.90
4308;DHT22;2167;53.448;9.984;2023-02-28T04:56:44;-0.40;16.10
4308;DHT22;2167;53.448;9.984;2023-02-28T04:59:09;-0.40;16.80
4308;DHT22;2167;53.448;9.984;2023-02-28T05:01:35;-0.40;17.50
4308;DHT22;2167;53.448;9.984;2023-02-28T05:04:03;-0.40;17.70
4308;DHT22;2167;53.448;9.984;2023-02-28T05:06:31;-0.40;17.00
4308;DHT22;2167;53.448;9.984;2023-02-28T05:08:57;-0.40;15.90
4308;DHT22;2167;53.448;9.984;2023-02-28T05:11:31;-0.40;15.10
4308;DHT22;2167;53.448;9.984;2023-02-28T05:14:01;-0.50;15.10
4308;DHT22;2167;53.448;9.984;2023-02-28T05:16:27;-0.60;15.80
4308;DHT22;2167;53.448;9.984;2023-02-28T05:18:52;-0.50;16.70
4308;DHT22;2167;53.448;9.984;2023-02-28T05:23:59;-0.60;15.90
4308;DHT22;2167;53.448;9.984;2023-02-28T05:26:26;-0.60;15.90
4308;DHT22;2167;53.448;9.984;2023-02-28T05:28:51;-0.60;16.10
4308;DHT22;2167;53.448;9.984;2023-02-28T05:31:17;-0.60;16.40
4308;DHT22;2167;53.448;9.984;2023-02-28T05:33:43;-0.50;16.60
4308;DHT22;2167;53.448;9.984;2023-02-28T05:36:09;-0.50;15.90
4308;DHT22;2167;53.448;9.984;2023-02-28T05:38:34;-0.50;15.30
4308;DHT22;2167;53.448;9.984;2023-02-28T05:41:00;-0.60;14.20
4308;DHT22;2167;53.448;9.984;2023-02-28T05:43:25;-0.70;13.80
4308;DHT22;2167;53.448;9.984;2023-02-28T05:45:51;-0.70;13.70
4308;DHT22;2167;53.448;9.984;2023-02-28T05:48:17;-0.80;13.70
4308;DHT22;2167;53.448;9.984;2023-02-28T05:50:43;-0.80;14.40
4308;DHT22;2167;53.448;9.984;2023-02-28T05:53:11;-0.80;14.10
4308;DHT22;2167;53.448;9.984;2023-02-28T05:55:37;-0.90;14.30
4308;DHT22;2167;53.448;9.984;2023-02-28T05:58:03;-0.90;14.90
4308;DHT22;2167;53.448;9.984;2023-02-28T06:00:29;-0.80;15.30
4308;DHT22;2167;53.448;9.984;2023-02-28T06:02:54;-0.80;15.50
4308;DHT22;2167;53.448;9.984;2023-02-28T06:05:23;-0.80;15.10
4308;DHT22;2167;53.448;9.984;2023-02-28T06:07:49;-0.90;14.90
4308;DHT22;2167;53.448;9.984;2023-02-28T06:10:15;-0.90;15.00
4308;DHT22;2167;53.448;9.984;2023-02-28T06:12:41;-1.00;14.70
4308;DHT22;2167;53.448;9.984;2023-02-28T06:15:11;-1.00;14.80
4308;DHT22;2167;53.448;9.984;2023-02-28T06:17:37;-1.00;15.00
4308;DHT22;2167;53.448;9.984;2023-02-28T06:20:03;-1.00;15.60
4308;DHT22;2167;53.448;9.984;2023-02-28T06:22:29;-0.90;16.00
4308;DHT22;2167;53.448;9.984;2023-02-28T06:24:55;-0.90;15.50
4308;DHT22;2167;53.448;9.984;2023-02-28T06:27:22;-0.90;15.10
4308;DHT22;2167;53.448;9.984;2023-02-28T06:29:47;-0.90;15.10
4308;DHT22;2167;53.448;9.984;2023-02-28T06:32:13;-0.90;15.60
4308;DHT22;2167;53.448;9.984;2023-02-28T06:34:39;-1.00;16.00
4308;DHT22;2167;53.448;9.984;2023-02-28T06:37:04;-1.00;16.80
4308;DHT22;2167;53.448;9.984;2023-02-28T06:39:31;-1.00;17.60
4308;DHT22;2167;53.448;9.984;2023-02-28T06:41:56;-0.90;17.90
4308;DHT22;2167;53.448;9.984;2023-02-28T06:44:23;-0.90;18.10
4308;DHT22;2167;53.448;9.984;2023-02-28T06:46:49;-0.90;18.40
4308;DHT22;2167;53.448;9.984;2023-02-28T06:49:15;-0.90;18.30
4308;DHT22;2167;53.448;9.984;2023-02-28T06:51:43;-0.90;18.10
4308;DHT22;2167;53.448;9.984;2023-02-28T06:54:12;-0.90;18.40
4308;DHT22;2167;53.448;9.984;2023-02-28T06:56:38;-0.90;19.00
4308;DHT22;2167;53.448;9.984;2023-02-28T06:59:04;-0.90;19.30
4308;DHT22;2167;53.448;9.984;2023-02-28T07:01:30;-0.90;19.60
4308;DHT22;2167;53.448;9.984;2023-02-28T07:03:57;-0.90;19.90
4308;DHT22;2167;53.448;9.984;2023-02-28T07:06:23;-0.90;20.20
4308;DHT22;2167;53.448;9.984;2023-02-28T07:08:50;-0.90;20.90
4308;DHT22;2167;53.448;9.984;2023-02-28T07:11:17;-0.90;21.60
4308;DHT22;2167;53.448;9.984;2023-02-28T07:13:42;-0.90;22.10
4308;DHT22;2167;53.448;9.984;2023-02-28T07:16:10;-0.90;22.60
4308;DHT22;2167;53.448;9.984;2023-02-28T07:18:37;-0.80;22.90
4308;DHT22;2167;53.448;9.984;2023-02-28T07:21:05;-0.80;22.80
4308;DHT22;2167;53.448;9.984;2023-02-28T07:23:30;-0.70;22.80
4308;DHT22;2167;53.448;9.984;2023-02-28T07:25:56;-0.70;22.60
4308;DHT22;2167;53.448;9.984;2023-02-28T07:28:22;-0.70;22.70
4308;DHT22;2167;53.448;9.984;2023-02-28T07:30:47;-0.60;22.80
4308;DHT22;2167;53.448;9.984;2023-02-28T07:33:13;-0.60;22.60
4308;DHT22;2167;53.448;9.984;2023-02-28T07:35:39;-0.50;22.80
4308;DHT22;2167;53.448;9.984;2023-02-28T07:38:05;-0.40;22.70
4308;DHT22;2167;53.448;9.984;2023-02-28T07:40:33;-0.40;22.70
4308;DHT22;2167;53.448;9.984;2023-02-28T07:42:59;-0.30;22.60
4308;DHT22;2167;53.448;9.984;2023-02-28T07:45:26;-0.30;22.90
4308;DHT22;2167;53.448;9.984;2023-02-28T07:47:53;-0.20;23.40
4308;DHT22;2167;53.448;9.984;2023-02-28T07:50:18;-0.20;23.80
4308;DHT22;2167;53.448;9.984;2023-02-28T07:52:44;-0.10;24.10
4308;DHT22;2167;53.448;9.984;2023-02-28T07:55:10;0.00;24.20
4308;DHT22;2167;53.448;9.984;2023-02-28T07:57:36;0.10;24.00
4308;DHT22;2167;53.448;9.984;2023-02-28T08:00:04;0.30;24.00
4308;DHT22;2167;53.448;9.984;2023-02-28T08:02:30;0.40;23.90
4308;DHT22;2167;53.448;9.984;2023-02-28T08:04:55;0.50;23.60
4308;DHT22;2167;53.448;9.984;2023-02-28T08:07:21;0.60;23.40
4308;DHT22;2167;53.448;9.984;2023-02-28T08:09:47;0.70;23.20
4308;DHT22;2167;53.448;9.984;2023-02-28T08:12:12;0.90;23.00
4308;DHT22;2167;53.448;9.984;2023-02-28T08:14:38;1.00;22.60
4308;DHT22;2167;53.448;9.984;2023-02-28T08:17:05;1.10;22.50
4308;DHT22;2167;53.448;9.984;2023-02-28T08:19:31;1.20;22.40
4308;DHT22;2167;53.448;9.984;2023-02-28T08:21:56;1.30;22.40
4308;DHT22;2167;53.448;9.984;2023-02-28T08:24:22;1.50;22.20
4308;DHT22;2167;53.448;9.984;2023-02-28T08:26:48;1.60;22.00
4308;DHT22;2167;53.448;9.984;2023-02-28T08:29:14;1.70;21.80
4308;DHT22;2167;53.448;9.984;2023-02-28T08:31:39;1.90;21.60
4308;DHT22;2167;53.448;9.984;2023-02-28T08:34:07;2.00;21.30
4308;DHT22;2167;53.448;9.984;2023-02-28T08:36:33;2.10;20.80
4308;DHT22;2167;53.448;9.984;2023-02-28T08:38:59;2.20;20.50
4308;DHT22;2167;53.448;9.984;2023-02-28T08:41:25;2.30;20.00
4308;DHT22;2167;53.448;9.984;2023-02-28T08:43:51;2.50;20.00
4308;DHT22;2167;53.448;9.984;2023-02-28T08:46:17;2.60;19.60
4308;DHT22;2167;53.448;9.984;2023-02-28T08:48:43;2.70;18.80
4308;DHT22;2167;53.448;9.984;2023-02-28T08:51:16;2.80;18.00
4308;DHT22;2167;53.448;9.984;2023-02-28T08:53:57;2.90;17.30
4308;DHT22;2167;53.448;9.984;2023-02-28T08:56:27;3.00;16.60
4308;DHT22;2167;53.448;9.984;2023-02-28T08:58:55;3.10;15.70
4308;DHT22;2167;53.448;9.984;2023-02-28T09:01:23;3.10;14.80
4308;DHT22;2167;53.448;9.984;2023-02-28T09:03:50;3.20;14.20
4308;DHT22;2167;53.448;9.984;2023-02-28T09:06:17;3.30;13.50
4308;DHT22;2167;53.448;9.984;2023-02-28T09:08:44;3.40;12.80
4308;DHT22;2167;53.448;9.984;2023-02-28T09:11:10;3.50;12.40
4308;DHT22;2167;53.448;9.984;2023-02-28T09:13:36;3.70;11.70
4308;DHT22;2167;53.448;9.984;2023-02-28T09:16:03;3.90;10.60
4308;DHT22;2167;53.448;9.984;2023-02-28T09:18:29;4.10;9.90
4308;DHT22;2167;53.448;9.984;2023-02-28T09:20:56;4.30;8.90
4308;DHT22;2167;53.448;9.984;2023-02-28T09:23:23;4.40;7.30
4308;DHT22;2167;53.448;9.984;2023-02-28T09:25:51;4.60;5.90
4308;DHT22;2167;53.448;9.984;2023-02-28T09:28:17;4.90;4.30
4308;DHT22;2167;53.448;9.984;2023-02-28T09:30:48;5.10;2.30
4308;DHT22;2167;53.448;9.984;2023-02-28T09:33:15;5.20;1.00
4308;DHT22;2167;53.448;9.984;2023-02-28T09:35:41;5.40;1.00
4308;DHT22;2167;53.448;9.984;2023-02-28T09:38:08;5.60;1.00
4308;DHT22;2167;53.448;9.984;2023-02-28T09:40:42;5.70;1.00
4308;DHT22;2167;53.448;9.984;2023-02-28T09:43:13;5.90;1.00
4308;DHT22;2167;53.448;9.984;2023-02-28T09:45:42;6.00;1.00
4308;DHT22;2167;53.448;9.984;2023-02-28T09:48:16;6.10;1.00
4308;DHT22;2167;53.448;9.984;2023-02-28T09:53:54;6.40;1.00
4308;DHT22;2167;53.448;9.984;2023-02-28T09:56:49;6.50;1.00
4308;DHT22;2167;53.448;9.984;2023-02-28T10:05:19;7.00;1.00
4308;DHT22;2167;53.448;9.984;2023-02-28T10:08:16;7.00;1.00
4308;DHT22;2167;53.448;9.984;2023-02-28T10:10:50;7.10;1.00
4308;DHT22;2167;53.448;9.984;2023-02-28T10:16:14;7.30;1.00
4308;DHT22;2167;53.448;9.984;2023-02-28T10:18:58;7.40;1.00
4308;DHT22;2167;53.448;9.984;2023-02-28T10:23:59;7.50;1.00
4308;DHT22;2167;53.448;9.984;2023-02-28T10:26:27;7.60;1.00
4308;DHT22;2167;53.448;9.984;2023-02-28T10:28:54;7.70;1.00
4308;DHT22;2167;53.448;9.984;2023-02-28T10:31:20;7.70;1.00
4308;DHT22;2167;53.448;9.984;2023-02-28T10:33:46;7.80;1.00
4308;DHT22;2167;53.448;9.984;2023-02-28T10:36:15;7.90;1.00
4308;DHT22;2167;53.448;9.984;2023-02-28T10:38:43;8.10;1.00
4308;DHT22;2167;53.448;9.984;2023-02-28T10:41:15;8.10;1.00
4308;DHT22;2167;53.448;9.984;2023-02-28T10:43:42;8.20;1.00
4308;DHT22;2167;53.448;9.984;2023-02-28T10:48:50;8.40;1.00
4308;DHT22;2167;53.448;9.984;2023-02-28T10:51:18;8.30;1.00
4308;DHT22;2167;53.448;9.984;2023-02-28T10:53:54;8.30;1.00
4308;DHT22;2167;53.448;9.984;2023-02-28T10:56:21;8.30;1.00
4308;DHT22;2167;53.448;9.984;2023-02-28T11:03:56;8.10;1.00
4308;DHT22;2167;53.448;9.984;2023-02-28T11:06:34;8.00;1.00
4308;DHT22;2167;53.448;9.984;2023-02-28T11:09:02;7.90;1.00
4308;DHT22;2167;53.448;9.984;2023-02-28T11:11:31;7.80;1.00
4308;DHT22;2167;53.448;9.984;2023-02-28T11:14:14;7.70;1.00
4308;DHT22;2167;53.448;9.984;2023-02-28T11:16:42;7.70;1.00
4308;DHT22;2167;53.448;9.984;2023-02-28T11:19:19;7.90;1.00
4308;DHT22;2167;53.448;9.984;2023-02-28T11:21:53;8.20;1.00
4308;DHT22;2167;53.448;9.984;2023-02-28T11:24:35;8.20;1.00
4308;DHT22;2167;53.448;9.984;2023-02-28T11:27:03;8.40;1.00
4308;DHT22;2167;53.448;9.984;2023-02-28T11:29:31;8.60;1.00
4308;DHT22;2167;53.448;9.984;2023-02-28T11:34:35;8.80;1.00
4308;DHT22;2167;53.448;9.984;2023-02-28T11:37:02;8.90;1.00
4308;DHT22;2167;53.448;9.984;2023-02-28T11:39:32;9.10;1.00
4308;DHT22;2167;53.448;9.984;2023-02-28T11:42:31;9.20;1.00
4308;DHT22;2167;53.448;9.984;2023-02-28T11:50:45;9.30;1.00
4308;DHT22;2167;53.448;9.984;2023-02-28T12:07:54;9.50;1.00
4308;DHT22;2167;53.448;9.984;2023-02-28T12:10:30;9.30;1.00
4308;DHT22;2167;53.448;9.984;2023-02-28T12:13:18;9.30;1.00
4308;DHT22;2167;53.448;9.984;2023-02-28T12:24:19;9.50;1.00
4308;DHT22;2167;53.448;9.984;2023-02-28T12:26:50;9.60;1.00
4308;DHT22;2167;53.448;9.984;2023-02-28T12:29:29;9.50;1.00
4308;DHT22;2167;53.448;9.984;2023-02-28T12:32:01;9.40;1.00
4308;DHT22;2167;53.448;9.984;2023-02-28T12:34:49;9.50;1.00
4308;DHT22;2167;53.448;9.984;2023-02-28T12:37:27;9.60;1.00
4308;DHT22;2167;53.448;9.984;2023-02-28T12:40:03;9.60;1.00
4308;DHT22;2167;53.448;9.984;2023-02-28T12:42:38;9.50;1.00
4308;DHT22;2167;53.448;9.984;2023-02-28T12:47:50;9.50;1.00
4308;DHT22;2167;53.448;9.984;2023-02-28T12:50:18;9.50;1.00
4308;DHT22;2167;53.448;9.984;2023-02-28T12:56:07;9.60;1.00
4308;DHT22;2167;53.448;9.984;2023-02-28T13:01:42;9.70;1.00
4308;DHT22;2167;53.448;9.984;2023-02-28T13:07:35;9.60;1.00
4308;DHT22;2167;53.448;9.984;2023-02-28T13:10:06;9.50;1.00
4308;DHT22;2167;53.448;9.984;2023-02-28T13:12:34;9.60;1.00
4308;DHT22;2167;53.448;9.984;2023-02-28T13:15:08;9.60;1.00
4308;DHT22;2167;53.448;9.984;2023-02-28T13:17:41;9.70;1.00
4308;DHT22;2167;53.448;9.984;2023-02-28T13:20:46;9.90;1.00
4308;DHT22;2167;53.448;9.984;2023-02-28T13:24:04;10.00;1.00
4308;DHT22;2167;53.448;9.984;2023-02-28T13:31:29;10.00;1.00
4308;DHT22;2167;53.448;9.984;2023-02-28T13:36:29;10.00;1.00
4308;DHT22;2167;53.448;9.984;2023-02-28T13:39:01;10.00;1.00
4308;DHT22;2167;53.448;9.984;2023-02-28T13:44:01;9.90;1.00
4308;DHT22;2167;53.448;9.984;2023-02-28T13:46:28;9.80;1.00
4308;DHT22;2167;53.448;9.984;2023-02-28T13:48:54;9.80;1.00
4308;DHT22;2167;53.448;9.984;2023-02-28T13:51:42;9.80;1.00
4308;DHT22;2167;53.448;9.984;2023-02-28T13:59:58;10.00;1.00
4308;DHT22;2167;53.448;9.984;2023-02-28T14:05:20;9.80;1.00
4308;DHT22;2167;53.448;9.984;2023-02-28T14:07:59;9.90;1.00
4308;DHT22;2167;53.448;9.984;2023-02-28T14:10:32;9.80;1.00
4308;DHT22;2167;53.448;9.984;2023-02-28T14:16:04;9.80;1.00
4308;DHT22;2167;53.448;9.984;2023-02-28T14:18:35;9.90;1.00
4308;DHT22;2167;53.448;9.984;2023-02-28T14:21:12;10.00;1.00
4308;DHT22;2167;53.448;9.984;2023-02-28T14:32:30;10.20;1.00
4308;DHT22;2167;53.448;9.984;2023-02-28T14:38:17;10.30;1.00
4308;DHT22;2167;53.448;9.984;2023-02-28T14:40:45;10.40;1.00
4308;DHT22;2167;53.448;9.984;2023-02-28T14:43:24;10.40;1.00
4308;DHT22;2167;53.448;9.984;2023-02-28T14:45:52;10.40;1.00
4308;DHT22;2167;53.448;9.984;2023-02-28T14:48:19;10.40;1.00
4308;DHT22;2167;53.448;9.984;2023-02-28T14:50:51;10.40;1.00
4308;DHT22;2167;53.448;9.984;2023-02-28T14:53:19;10.30;1.00
4308;DHT22;2167;53.448;9.984;2023-02-28T14:55:47;10.30;1.00
4308;DHT22;2167;53.448;9.984;2023-02-28T15:00:49;10.20;1.00
4308;DHT22;2167;53.448;9.984;2023-02-28T15:03:41;10.10;1.00
4308;DHT22;2167;53.448;9.984;2023-02-28T15:06:17;10.00;1.00
4308;DHT22;2167;53.448;9.984;2023-02-28T15:08:44;9.80;1.00
4308;DHT22;2167;53.448;9.984;2023-02-28T15:11:16;9.60;1.00
4308;DHT22;2167;53.448;9.984;2023-02-28T15:13:46;9.50;1.00
4308;DHT22;2167;53.448;9.984;2023-02-28T15:19:00;9.20;1.00
4308;DHT22;2167;53.448;9.984;2023-02-28T15:21:38;9.00;1.00
4308;DHT22;2167;53.448;9.984;2023-02-28T15:24:42;8.80;1.00
4308;DHT22;2167;53.448;9.984;2023-02-28T15:27:29;8.70;1.00
4308;DHT22;2167;53.448;9.984;2023-02-28T15:29:59;8.70;1.00
4308;DHT22;2167;53.448;9.984;2023-02-28T15:32:37;8.60;1.00
4308;DHT22;2167;53.448;9.984;2023-02-28T15:37:55;8.40;1.00
4308;DHT22;2167;53.448;9.984;2023-02-28T15:40:40;8.20;1.00
4308;DHT22;2167;53.448;9.984;2023-02-28T15:43:18;8.20;1.00
4308;DHT22;2167;53.448;9.984;2023-02-28T15:45:49;8.10;1.00
4308;DHT22;2167;53.448;9.984;2023-02-28T15:48:37;8.00;1.00
4308;DHT22;2167;53.448;9.984;2023-02-28T15:51:38;7.90;1.00
4308;DHT22;2167;53.448;9.984;2023-02-28T15:54:12;7.90;1.00
4308;DHT22;2167;53.448;9.984;2023-02-28T15:56:45;7.70;1.00
4308;DHT22;2167;53.448;9.984;2023-02-28T15:59:16;7.60;1.00
4308;DHT22;2167;53.448;9.984;2023-02-28T16:01:44;7.50;1.00
4308;DHT22;2167;53.448;9.984;2023-02-28T16:04:18;7.50;1.00
4308;DHT22;2167;53.448;9.984;2023-02-28T16:09:25;7.40;1.00
4308;DHT22;2167;53.448;9.984;2023-02-28T16:11:54;7.30;1.00
4308;DHT22;2167;53.448;9.984;2023-02-28T16:14:22;7.30;1.00
4308;DHT22;2167;53.448;9.984;2023-02-28T16:16:51;7.20;1.00
4308;DHT22;2167;53.448;9.984;2023-02-28T16:19:17;7.10;1.00
4308;DHT22;2167;53.448;9.984;2023-02-28T16:21:43;7.10;1.00
4308;DHT22;2167;53.448;9.984;2023-02-28T16:24:09;7.00;1.00
4308;DHT22;2167;53.448;9.984;2023-02-28T16:26:35;7.00;1.00
4308;DHT22;2167;53.448;9.984;2023-02-28T16:29:03;6.90;1.00
4308;DHT22;2167;53.448;9.984;2023-02-28T16:31:29;6.80;1.00
4308;DHT22;2167;53.448;9.984;2023-02-28T16:33:55;6.70;1.00
4308;DHT22;2167;53.448;9.984;2023-02-28T16:36:23;6.70;1.00
4308;DHT22;2167;53.448;9.984;2023-02-28T16:38:51;6.60;1.00
4308;DHT22;2167;53.448;9.984;2023-02-28T16:41:19;6.60;1.00
4308;DHT22;2167;53.448;9.984;2023-02-28T16:43:51;6.50;1.00
4308;DHT22;2167;53.448;9.984;2023-02-28T16:46:18;6.40;1.00
4308;DHT22;2167;53.448;9.984;2023-02-28T16:48:45;6.30;1.00
4308;DHT22;2167;53.448;9.984;2023-02-28T16:51:15;6.20;1.00
4308;DHT22;2167;53.448;9.984;2023-02-28T16:53:41;6.10;1.00
4308;DHT22;2167;53.448;9.984;2023-02-28T16:56:23;6.00;1.00
4308;DHT22;2167;53.448;9.984;2023-02-28T16:58:50;5.90;1.00
4308;DHT22;2167;53.448;9.984;2023-02-28T17:01:17;5.80;1.00
4308;DHT22;2167;53.448;9.984;2023-02-28T17:03:48;5.70;1.00
4308;DHT22;2167;53.448;9.984;2023-02-28T17:06:28;5.60;1.00
4308;DHT22;2167;53.448;9.984;2023-02-28T17:08:55;5.60;1.00
4308;DHT22;2167;53.448;9.984;2023-02-28T17:11:21;5.40;1.00
4308;DHT22;2167;53.448;9.984;2023-02-28T17:13:48;5.30;1.00
4308;DHT22;2167;53.448;9.984;2023-02-28T17:16:34;5.20;1.00
4308;DHT22;2167;53.448;9.984;2023-02-28T17:19:03;5.10;1.00
4308;DHT22;2167;53.448;9.984;2023-02-28T17:21:30;5.10;1.00
4308;DHT22;2167;53.448;9.984;2023-02-28T17:23:57;5.00;1.00
4308;DHT22;2167;53.448;9.984;2023-02-28T17:26:22;4.90;1.00
4308;DHT22;2167;53.448;9.984;2023-02-28T17:28:51;4.70;1.00
4308;DHT22;2167;53.448;9.984;2023-02-28T17:31:17;4.60;1.00
4308;DHT22;2167;53.448;9.984;2023-02-28T17:33:43;4.40;1.00
4308;DHT22;2167;53.448;9.984;2023-02-28T17:36:26;4.30;1.00
4308;DHT22;2167;53.448;9.984;2023-02-28T17:38:53;4.30;1.00
4308;DHT22;2167;53.448;9.984;2023-02-28T17:41:20;4.30;1.00
4308;DHT22;2167;53.448;9.984;2023-02-28T17:43:46;4.20;1.00
4308;DHT22;2167;53.448;9.984;2023-02-28T17:46:17;4.10;1.00
4308;DHT22;2167;53.448;9.984;2023-02-28T17:48:45;3.90;1.00
4308;DHT22;2167;53.448;9.984;2023-02-28T17:51:13;3.90;1.00
4308;DHT22;2167;53.448;9.984;2023-02-28T17:53:38;3.80;1.00
4308;DHT22;2167;53.448;9.984;2023-02-28T17:56:05;3.70;1.00
4308;DHT22;2167;53.448;9.984;2023-02-28T17:58:30;3.60;1.00
4308;DHT22;2167;53.448;9.984;2023-02-28T18:00:56;3.50;1.00
4308;DHT22;2167;53.448;9.984;2023-02-28T18:03:22;3.50;1.00
4308;DHT22;2167;53.448;9.984;2023-02-28T18:05:49;3.50;1.00
4308;DHT22;2167;53.448;9.984;2023-02-28T18:08:16;3.40;1.00
4308;DHT22;2167;53.448;9.984;2023-02-28T18:10:42;3.40;1.00
4308;DHT22;2167;53.448;9.984;2023-02-28T18:13:07;3.30;1.00
4308;DHT22;2167;53.448;9.984;2023-02-28T18:15:34;3.20;1.00
4308;DHT22;2167;53.448;9.984;2023-02-28T18:18:00;3.20;1.00
4308;DHT22;2167;53.448;9.984;2023-02-28T18:20:27;3.10;1.00
4308;DHT22;2167;53.448;9.984;2023-02-28T18:22:53;2.90;1.00
4308;DHT22;2167;53.448;9.984;2023-02-28T18:25:19;2.80;1.00
4308;DHT22;2167;53.448;9.984;2023-02-28T18:27:45;2.80;1.00
4308;DHT22;2167;53.448;9.984;2023-02-28T18:30:27;2.80;1.00
4308;DHT22;2167;53.448;9.984;2023-02-28T18:32:55;2.80;1.00
4308;DHT22;2167;53.448;9.984;2023-02-28T18:35:22;2.70;1.00
4308;DHT22;2167;53.448;9.984;2023-02-28T18:40:29;2.70;1.00
4308;DHT22;2167;53.448;9.984;2023-02-28T18:42:55;2.70;1.00
4308;DHT22;2167;53.448;9.984;2023-02-28T18:45:20;2.60;1.00
4308;DHT22;2167;53.448;9.984;2023-02-28T18:47:46;2.50;1.00
4308;DHT22;2167;53.448;9.984;2023-02-28T18:50:11;2.50;1.00
4308;DHT22;2167;53.448;9.984;2023-02-28T18:52:38;2.50;1.00
4308;DHT22;2167;53.448;9.984;2023-02-28T18:55:04;2.40;1.00
4308;DHT22;2167;53.448;9.984;2023-02-28T18:57:32;2.20;1.00
4308;DHT22;2167;53.448;9.984;2023-02-28T18:59:58;2.10;1.00
4308;DHT22;2167;53.448;9.984;2023-02-28T19:02:23;2.10;1.00
4308;DHT22;2167;53.448;9.984;2023-02-28T19:04:49;2.00;1.00
4308;DHT22;2167;53.448;9.984;2023-02-28T19:07:15;1.90;1.00
4308;DHT22;2167;53.448;9.984;2023-02-28T19:09:40;1.80;1.00
4308;DHT22;2167;53.448;9.984;2023-02-28T19:12:06;1.70;1.00